Terminal Aerodrome Forecast
Issued by NWS Mt. Holly, NJ

Home | Current Version | Previous Version | Text Only | Print | Product List | Glossary On
Versions: 1 2 3 4 5 6 7 8 9 10 11 12
000
FTUS41 KPHI 271736
TAFTTN
TAF
KTTN 271736Z 2718/2818 21008KT P6SM SCT050
     FM280100 20006KT P6SM SCT250
     FM280800 VRB03KT P6SM SCT250
      TEMPO 2809/2812 4SM BR
     FM281400 22008KT P6SM SCT050=

USA.gov is the U.S. government's official web portal to all federal, state and local government web resources and services.